Time;durP1;ratioP1;P1;durP2;ratioP2;P2;SDS_P1;SDS_P2;PMS_P1;PMS_P2;Temp;Humidity;BMP_temperature;BMP_pressure;BME280_temperature;BME280_humidity;BME280_pressure;Samples;Min_cycle;Max_cycle;Signal;HPM_P1;HPM_P2
2022/04/14 00:01:32;;;;;;;0.57;0.40;;;;;;;21.10;37.83;99298.53;5111675;28;20039;-66
2022/04/14 00:03:57;;;;;;;0.68;0.40;;;;;;;21.11;37.73;99297.34;5111665;28;20388;-66
2022/04/14 00:06:23;;;;;;;0.95;0.55;;;;;;;21.09;37.77;99298.91;5126351;28;20043;-66
2022/04/14 00:08:51;;;;;;;0.70;0.40;;;;;;;21.11;37.80;99296.53;5132178;28;20487;-66
2022/04/14 00:11:17;;;;;;;0.55;0.25;;;;;;;21.10;37.70;99297.72;5132191;28;20043;-66
2022/04/14 00:13:43;;;;;;;1.35;0.43;;;;;;;21.11;37.68;99302.09;5132227;28;20039;-66
2022/04/14 00:16:08;;;;;;;0.68;0.40;;;;;;;21.10;37.72;99306.06;5119499;28;20048;-67
2022/04/14 00:18:33;;;;;;;0.60;0.30;;;;;;;21.10;37.60;99306.06;5111762;28;20086;-66
2022/04/14 00:20:59;;;;;;;0.57;0.38;;;;;;;21.09;37.57;99304.47;5111701;28;20056;-66
2022/04/14 00:23:24;;;;;;;1.25;0.52;;;;;;;21.07;37.59;99301.25;5111318;28;20044;-66
2022/04/14 00:25:50;;;;;;;0.68;0.40;;;;;;;21.09;37.87;99310.03;5112644;28;20035;-67
2022/04/14 00:28:15;;;;;;;0.75;0.40;;;;;;;21.08;37.69;99302.88;5111189;28;20040;-66
2022/04/14 00:30:41;;;;;;;1.15;0.50;;;;;;;21.06;37.88;99299.66;5110245;28;20040;-67
2022/04/14 00:33:06;;;;;;;0.63;0.40;;;;;;;21.04;37.66;99302.81;5111386;28;20043;-66
2022/04/14 00:35:32;;;;;;;1.27;0.60;;;;;;;21.08;37.90;99311.22;5117839;28;20481;-66
2022/04/14 00:37:57;;;;;;;1.20;0.50;;;;;;;21.07;37.81;99312.38;5131448;28;20039;-66
2022/04/14 00:40:22;;;;;;;0.73;0.40;;;;;;;21.07;37.81;99315.16;5131817;28;20039;-66
2022/04/14 00:42:48;;;;;;;0.80;0.50;;;;;;;21.06;37.95;99306.00;5131585;28;20047;-66
2022/04/14 00:45:14;;;;;;;0.68;0.40;;;;;;;21.06;38.00;99313.56;5127317;28;20043;-66
2022/04/14 00:47:39;;;;;;;1.15;0.60;;;;;;;21.06;38.06;99311.56;5111337;28;20066;-66
2022/04/14 00:50:05;;;;;;;0.38;0.30;;;;;;;21.05;38.04;99311.97;5111134;28;20496;-66
2022/04/14 00:52:31;;;;;;;1.25;0.60;;;;;;;21.04;37.95;99316.72;5110851;28;20075;-66
2022/04/14 00:54:57;;;;;;;0.88;0.47;;;;;;;21.04;37.86;99319.50;5117044;28;20042;-66
2022/04/14 00:57:22;;;;;;;1.08;0.50;;;;;;;21.03;38.19;99317.09;5131466;28;20413;-66
2022/04/14 00:59:48;;;;;;;0.95;0.55;;;;;;;21.04;38.21;99324.25;5131460;28;20046;-66
2022/04/14 01:02:13;;;;;;;1.13;0.50;;;;;;;21.04;38.27;99330.63;5131291;28;20036;-66
2022/04/14 01:04:40;;;;;;;1.02;0.50;;;;;;;21.03;38.11;99328.22;5113145;28;20133;-67
2022/04/14 01:07:07;;;;;;;0.88;0.50;;;;;;;21.02;38.26;99335.78;5110881;28;20471;-66
2022/04/14 01:09:33;;;;;;;1.17;0.45;;;;;;;21.03;38.09;99340.16;5110496;28;20047;-66
2022/04/14 01:11:59;;;;;;;1.05;0.40;;;;;;;21.02;38.06;99338.56;5110907;28;20066;-66
2022/04/14 01:14:29;;;;;;;0.80;0.47;;;;;;;21.03;38.08;99342.13;5125714;28;20129;-66
2022/04/14 01:16:56;;;;;;;0.55;0.38;;;;;;;21.02;38.12;99340.53;5130565;28;20050;-66
2022/04/14 01:19:22;;;;;;;0.57;0.40;;;;;;;21.00;38.10;99343.66;5131248;28;20053;-66
2022/04/14 01:22:15;;;;;;;0.70;0.50;;;;;;;21.00;38.27;99340.88;5131121;28;20046;-66
2022/04/14 01:24:41;;;;;;;0.75;0.50;;;;;;;21.02;38.16;99343.31;5113168;28;20336;-66
2022/04/14 01:27:07;;;;;;;0.45;0.35;;;;;;;21.01;38.16;99348.06;5110527;28;20043;-66
2022/04/14 01:29:33;;;;;;;0.93;0.40;;;;;;;20.98;38.23;99346.03;5110499;28;20130;-66
2022/04/14 01:32:01;;;;;;;0.73;0.45;;;;;;;20.97;38.58;99352.78;5110548;28;20118;-66
2022/04/14 01:34:32;;;;;;;0.73;0.40;;;;;;;20.99;38.32;99355.19;5125048;28;20050;-66
2022/04/14 01:37:00;;;;;;;0.60;0.40;;;;;;;20.98;38.18;99350.78;5130784;28;20172;-66
2022/04/14 01:39:26;;;;;;;1.20;0.52;;;;;;;20.97;38.25;99349.19;5128751;28;20422;-66
2022/04/14 01:41:51;;;;;;;0.73;0.40;;;;;;;20.99;38.43;99352.41;5130289;27;20495;-66
2022/04/14 01:44:17;;;;;;;1.10;0.60;;;;;;;20.98;38.23;99348.00;5117468;28;20091;-66
2022/04/14 01:46:43;;;;;;;0.55;0.40;;;;;;;20.98;38.41;99354.38;5110080;28;20082;-66
2022/04/14 01:49:09;;;;;;;0.82;0.40;;;;;;;20.98;38.31;99356.34;5110192;28;20040;-66
2022/04/14 01:51:35;;;;;;;0.70;0.40;;;;;;;20.99;38.20;99355.19;5110220;28;20561;-66
2022/04/14 01:54:01;;;;;;;0.52;0.40;;;;;;;20.99;38.47;99357.94;5120750;28;20054;-66
2022/04/14 01:56:26;;;;;;;0.80;0.40;;;;;;;20.99;38.53;99353.19;5130564;28;20051;-66
2022/04/14 01:58:54;;;;;;;1.25;0.50;;;;;;;20.95;38.48;99344.03;5130473;28;20129;-66
2022/04/14 02:01:20;;;;;;;0.93;0.50;;;;;;;20.96;38.55;99342.84;5130652;28;20043;-60
2022/04/14 02:03:46;;;;;;;1.55;0.63;;;;;;;20.98;38.50;99353.56;5121570;28;20051;-59
2022/04/14 02:06:11;;;;;;;1.17;0.50;;;;;;;20.96;38.65;99350.38;5110066;28;20396;-59
2022/04/14 02:08:37;;;;;;;1.52;0.60;;;;;;;20.96;38.58;99350.38;5110069;28;20039;-59
2022/04/14 02:11:03;;;;;;;0.65;0.40;;;;;;;20.96;38.42;99353.97;5110015;28;20040;-59
2022/04/14 02:13:30;;;;;;;1.40;0.50;;;;;;;20.96;38.47;99347.59;5130037;28;20411;-59
2022/04/14 02:15:55;;;;;;;1.27;0.52;;;;;;;20.95;38.55;99344.03;5130195;28;20046;-59
2022/04/14 02:18:21;;;;;;;0.40;0.40;;;;;;;20.95;38.59;99357.13;5130434;28;20039;-59
2022/04/14 02:20:46;;;;;;;0.82;0.55;;;;;;;20.94;38.39;99347.97;5130294;28;20039;-59
2022/04/14 02:23:11;;;;;;;0.98;0.60;;;;;;;20.93;38.53;99348.34;5129869;28;20058;-60
2022/04/14 02:25:37;;;;;;;0.40;0.40;;;;;;;20.94;38.49;99349.97;5130460;28;20119;-59
2022/04/14 02:28:02;;;;;;;0.65;0.40;;;;;;;20.94;38.44;99347.19;5130361;28;20055;-59
2022/04/14 02:30:28;;;;;;;1.20;0.63;;;;;;;20.94;38.47;99344.41;5130252;28;20043;-60
2022/04/14 02:32:54;;;;;;;0.80;0.50;;;;;;;20.94;38.68;99352.75;5129353;28;20460;-59
2022/04/14 02:35:20;;;;;;;0.68;0.40;;;;;;;20.93;38.67;99357.47;5130081;28;20491;-59
2022/04/14 02:37:45;;;;;;;1.10;0.40;;;;;;;20.92;38.74;99350.31;5130327;28;20084;-59
2022/04/14 02:40:11;;;;;;;0.88;0.50;;;;;;;20.92;38.65;99346.75;5130055;28;20336;-59
2022/04/14 02:42:36;;;;;;;0.80;0.43;;;;;;;20.91;38.63;99343.16;5118097;28;20139;-60
2022/04/14 02:45:02;;;;;;;0.52;0.38;;;;;;;20.88;38.79;99339.16;5109731;28;20100;-59
2022/04/14 02:47:27;;;;;;;0.70;0.40;;;;;;;20.91;38.75;99339.59;5109529;28;20080;-59
2022/04/14 02:49:53;;;;;;;0.50;0.35;;;;;;;20.91;38.87;99334.03;5109297;28;20036;-60
2022/04/14 02:52:18;;;;;;;0.95;0.50;;;;;;;20.90;38.60;99333.22;5117713;27;20050;-59
2022/04/14 02:54:44;;;;;;;0.90;0.50;;;;;;;20.87;38.70;99329.22;5132829;28;20046;-60
2022/04/14 02:57:09;;;;;;;0.70;0.40;;;;;;;20.90;38.58;99336.00;5133171;28;20058;-60
2022/04/14 02:59:36;;;;;;;1.02;0.55;;;;;;;20.88;38.76;99341.16;5133353;28;20499;-59
2022/04/14 03:02:03;;;;;;;0.43;0.38;;;;;;;20.90;38.86;99338.78;5126416;28;20561;-59
2022/04/14 03:04:30;;;;;;;0.77;0.47;;;;;;;20.89;38.62;99340.75;5112799;28;20039;-59
2022/04/14 03:06:56;;;;;;;0.82;0.50;;;;;;;20.88;38.59;99339.16;5112888;28;20161;-59
2022/04/14 03:09:22;;;;;;;0.40;0.32;;;;;;;20.89;38.85;99345.53;5112839;28;20043;-59
2022/04/14 03:11:47;;;;;;;0.88;0.40;;;;;;;20.89;38.62;99349.09;5113735;28;20047;-59
2022/04/14 03:14:13;;;;;;;0.73;0.50;;;;;;;20.88;38.67;99353.06;5128427;28;20080;-59
2022/04/14 03:16:38;;;;;;;0.73;0.50;;;;;;;20.87;38.70;99347.88;5132984;28;20071;-60
2022/04/14 03:19:05;;;;;;;0.65;0.40;;;;;;;20.86;38.78;99349.06;5133121;28;20509;-59
2022/04/14 03:21:30;;;;;;;0.55;0.35;;;;;;;20.86;38.67;99358.22;5131784;28;20278;-59
2022/04/14 03:23:55;;;;;;;0.65;0.40;;;;;;;20.87;38.80;99359.00;5112520;28;20047;-59
2022/04/14 03:26:21;;;;;;;1.50;0.80;;;;;;;20.86;38.74;99358.22;5112435;28;20122;-59
2022/04/14 03:28:46;;;;;;;0.55;0.47;;;;;;;20.86;38.92;99363.78;5112329;28;20044;-59
2022/04/14 03:31:12;;;;;;;0.93;0.50;;;;;;;20.87;38.77;99359.00;5112343;28;20036;-59
2022/04/14 03:33:37;;;;;;;1.05;0.47;;;;;;;20.85;38.66;99362.13;5130771;28;20541;-59
2022/04/14 03:36:03;;;;;;;1.02;0.60;;;;;;;20.82;38.85;99356.53;5132897;28;20423;-60
2022/04/14 03:38:29;;;;;;;0.63;0.35;;;;;;;20.84;39.06;99371.66;5132852;28;20065;-59
2022/04/14 03:40:54;;;;;;;0.93;0.52;;;;;;;20.84;38.71;99368.88;5132708;28;20062;-59
2022/04/14 03:43:20;;;;;;;0.90;0.60;;;;;;;20.85;38.91;99370.47;5116442;28;20131;-59
2022/04/14 03:45:46;;;;;;;0.65;0.47;;;;;;;20.83;38.76;99372.84;5112139;28;20048;-59
2022/04/14 03:48:11;;;;;;;0.95;0.40;;;;;;;20.82;38.99;99370.44;5112396;28;20509;-59
2022/04/14 03:50:36;;;;;;;1.52;0.60;;;;;;;20.81;38.74;99369.66;5112141;28;20358;-59
2022/04/14 03:53:02;;;;;;;0.75;0.45;;;;;;;20.82;39.03;99378.78;5125064;28;20039;-59
2022/04/14 03:55:27;;;;;;;1.13;0.52;;;;;;;20.81;38.79;99378.00;5132573;28;20534;-59
2022/04/14 03:57:53;;;;;;;0.73;0.60;;;;;;;20.82;39.03;99376.81;5132406;28;20512;-59
2022/04/14 04:00:18;;;;;;;0.68;0.40;;;;;;;20.82;38.75;99384.34;5130241;28;20032;-59
2022/04/14 04:02:43;;;;;;;0.52;0.50;;;;;;;20.82;39.02;99378.78;5130671;28;20074;-60
2022/04/14 04:05:09;;;;;;;1.20;0.82;;;;;;;20.80;39.03;99381.94;5132102;27;20039;-59
2022/04/14 04:07:34;;;;;;;0.57;0.40;;;;;;;20.80;38.70;99376.38;5132234;28;20042;-59
2022/04/14 04:10:00;;;;;;;1.10;0.50;;;;;;;20.80;38.99;99381.94;5132465;28;20155;-59
2022/04/14 04:12:25;;;;;;;0.68;0.43;;;;;;;20.79;38.99;99387.88;5112345;28;20097;-59
2022/04/14 04:14:51;;;;;;;0.65;0.50;;;;;;;20.79;38.68;99380.34;5111786;28;20066;-59
2022/04/14 04:17:17;;;;;;;1.15;0.52;;;;;;;20.79;38.89;99385.09;5111490;28;20059;-59
2022/04/14 04:19:43;;;;;;;0.82;0.60;;;;;;;20.80;38.94;99381.94;5112757;28;20042;-59
2022/04/14 04:22:11;;;;;;;0.57;0.40;;;;;;;20.78;38.92;99377.91;5111728;28;20414;-59
2022/04/14 04:24:38;;;;;;;1.10;0.60;;;;;;;20.79;38.84;99379.56;5128426;28;20050;-60
2022/04/14 04:27:04;;;;;;;0.93;0.50;;;;;;;20.79;38.67;99385.09;5132083;28;20095;-59
2022/04/14 04:29:29;;;;;;;0.90;0.40;;;;;;;20.77;38.92;99382.69;5131989;28;20047;-60
2022/04/14 04:31:55;;;;;;;0.95;0.55;;;;;;;20.78;38.85;99392.63;5132004;28;20039;-59
2022/04/14 04:34:21;;;;;;;0.82;0.50;;;;;;;20.74;38.82;99383.44;5117496;28;20054;-59
2022/04/14 04:36:46;;;;;;;0.85;0.55;;;;;;;20.76;38.96;99392.19;5111435;28;20469;-60
2022/04/14 04:39:11;;;;;;;0.95;0.60;;;;;;;20.76;38.78;99396.97;5111277;28;20083;-59
2022/04/14 04:41:37;;;;;;;0.82;0.50;;;;;;;20.76;39.01;99397.75;5111309;28;20484;-59
2022/04/14 04:44:07;;;;;;;1.40;0.60;;;;;;;20.77;39.03;99401.34;5122163;28;20400;-60
2022/04/14 04:46:32;;;;;;;1.20;0.60;;;;;;;20.76;39.00;99399.75;5131721;28;20047;-59
2022/04/14 04:48:58;;;;;;;1.38;0.50;;;;;;;20.76;38.90;99403.31;5131704;28;20038;-59
2022/04/14 04:51:24;;;;;;;0.60;0.40;;;;;;;20.74;38.98;99400.13;5127732;28;20047;-60
2022/04/14 04:53:50;;;;;;;0.50;0.40;;;;;;;20.74;38.91;99402.91;5121996;28;20574;-60
2022/04/14 04:56:18;;;;;;;0.43;0.32;;;;;;;20.74;38.87;99397.34;5130741;28;20126;-60
2022/04/14 04:58:43;;;;;;;0.40;0.30;;;;;;;20.74;39.00;99400.13;5099267;28;20135;-59
2022/04/14 05:01:09;;;;;;;0.77;0.40;;;;;;;20.72;38.85;99396.94;5131414;28;20135;-60
2022/04/14 05:03:35;;;;;;;0.63;0.50;;;;;;;20.74;38.98;99402.91;5130685;28;20086;-60
2022/04/14 05:06:00;;;;;;;0.63;0.40;;;;;;;20.76;39.04;99408.09;5131461;28;20071;-61
2022/04/14 05:08:26;;;;;;;1.45;0.60;;;;;;;20.76;38.80;99408.88;5113133;28;20483;-59
2022/04/14 05:10:51;;;;;;;0.95;0.47;;;;;;;20.76;38.98;99411.66;5131437;28;20412;-59
2022/04/14 05:13:16;;;;;;;1.17;0.63;;;;;;;20.76;38.77;99406.09;5127884;28;20050;-59
2022/04/14 05:15:42;;;;;;;0.68;0.40;;;;;;;20.76;38.93;99414.44;5110091;28;20097;-59
2022/04/14 05:18:08;;;;;;;0.45;0.28;;;;;;;20.77;38.88;99416.03;5110486;28;20461;-59
2022/04/14 05:20:34;;;;;;;0.70;0.45;;;;;;;20.75;38.95;99412.84;5130736;28;20035;-59
2022/04/14 05:23:01;;;;;;;0.75;0.40;;;;;;;20.76;39.11;99413.63;5131022;28;20051;-60
2022/04/14 05:25:26;;;;;;;0.82;0.50;;;;;;;20.75;38.91;99417.59;5131201;28;20729;-59
2022/04/14 05:27:53;;;;;;;2.60;0.38;;;;;;;20.79;39.00;99412.91;5127821;28;20034;-66
2022/04/14 05:30:18;;;;;;;4.20;0.50;;;;;;;20.80;39.10;99423.66;5110561;28;20040;-60
2022/04/14 05:32:44;;;;;;;0.93;0.43;;;;;;;20.77;38.94;99424.38;5110447;28;20044;-60
2022/04/14 05:35:09;;;;;;;1.58;0.60;;;;;;;20.77;38.93;99429.13;5110733;28;20447;-60
2022/04/14 05:37:36;;;;;;;1.42;0.60;;;;;;;20.77;39.11;99429.94;5110092;28;20036;-60
2022/04/14 05:40:03;;;;;;;1.38;0.65;;;;;;;20.76;39.22;99433.91;5130422;28;20043;-60
2022/04/14 05:42:29;;;;;;;0.60;0.32;;;;;;;20.76;39.26;99435.88;5130883;28;20455;-59
2022/04/14 05:44:54;;;;;;;1.00;0.50;;;;;;;20.76;39.24;99436.69;5130787;28;20089;-60
2022/04/14 05:47:23;;;;;;;0.98;0.50;;;;;;;20.75;39.47;99429.50;5130868;28;20039;-59
2022/04/14 05:49:49;;;;;;;1.73;0.60;;;;;;;20.77;39.47;99431.91;5112191;28;20483;-60
2022/04/14 05:52:15;;;;;;;0.50;0.40;;;;;;;20.76;39.32;99430.31;5110301;28;20480;-60
2022/04/14 05:54:40;;;;;;;1.10;0.60;;;;;;;20.78;39.57;99439.88;5110250;28;20051;-59
2022/04/14 05:57:06;;;;;;;0.95;0.50;;;;;;;20.77;39.50;99435.50;5110148;28;20092;-67
2022/04/14 05:59:31;;;;;;;0.70;0.40;;;;;;;20.74;39.33;99427.91;5125423;28;20051;-67
2022/04/14 06:01:56;;;;;;;1.40;0.50;;;;;;;20.76;39.43;99433.91;5130528;28;20051;-67
2022/04/14 06:04:22;;;;;;;1.15;0.60;;;;;;;20.75;39.26;99428.72;5130415;28;20092;-67
2022/04/14 06:06:47;;;;;;;0.80;0.43;;;;;;;20.77;39.49;99429.94;5130308;28;20376;-60
2022/04/14 06:09:13;;;;;;;0.82;0.40;;;;;;;20.78;39.22;99430.75;5117766;28;20060;-59
2022/04/14 06:11:39;;;;;;;1.48;0.63;;;;;;;20.78;39.44;99431.53;5109665;28;20056;-60
2022/04/14 06:14:04;;;;;;;1.15;0.60;;;;;;;20.78;39.12;99434.31;5109906;28;20046;-60
2022/04/14 06:16:31;;;;;;;0.70;0.40;;;;;;;20.78;39.05;99439.88;5109788;28;20048;-60
2022/04/14 06:18:57;;;;;;;1.23;0.50;;;;;;;20.78;39.06;99433.50;5109868;28;20507;-59
2022/04/14 06:21:22;;;;;;;1.17;0.60;;;;;;;20.78;39.04;99434.31;5109819;28;20054;-59
2022/04/14 06:23:49;;;;;;;1.48;0.68;;;;;;;20.78;39.19;99433.50;5109548;28;20093;-60
2022/04/14 06:26:15;;;;;;;0.80;0.50;;;;;;;20.78;39.21;99437.09;5109873;28;20044;-60
2022/04/14 06:28:42;;;;;;;0.95;0.60;;;;;;;20.78;39.00;99434.31;5111092;28;20050;-59
2022/04/14 06:31:07;;;;;;;2.53;0.90;;;;;;;20.88;38.64;99435.66;5118236;28;20097;-60
2022/04/14 06:33:33;;;;;;;3.25;1.20;;;;;;;21.02;38.33;99433.09;5125463;28;20426;-61
2022/04/14 06:35:59;;;;;;;3.83;1.38;;;;;;;21.08;38.02;99420.47;5122770;28;20418;-61
2022/04/14 06:38:27;;;;;;;5.30;1.67;;;;;;;21.13;37.72;99422.91;5121950;28;20096;-61
2022/04/14 06:40:53;;;;;;;3.55;1.80;;;;;;;21.13;37.83;99424.88;5118588;28;20075;-62
2022/04/14 06:43:18;;;;;;;5.78;1.65;;;;;;;21.16;37.81;99424.94;5122672;28;20059;-61
2022/04/14 06:45:44;;;;;;;8.73;1.88;;;;;;;21.21;37.47;99423.81;5125837;28;20410;-62
2022/04/14 06:48:10;;;;;;;7.50;2.10;;;;;;;21.19;37.43;99426.16;5133029;28;20506;-62
2022/04/14 06:50:35;;;;;;;5.68;2.33;;;;;;;21.23;37.04;99418.69;5133564;28;20047;-65
2022/04/14 06:53:01;;;;;;;10.40;2.90;;;;;;;21.25;36.71;99424.66;5132431;28;20419;-66
2022/04/14 06:55:27;;;;;;;8.57;2.90;;;;;;;21.18;36.92;99419.00;5127124;28;20092;-66
2022/04/14 06:57:53;;;;;;;9.05;2.80;;;;;;;21.15;36.79;99428.13;5131244;28;20043;-65
2022/04/14 07:00:19;;;;;;;7.63;2.60;;;;;;;21.09;37.36;99418.50;5127771;28;20500;-65
2022/04/14 07:02:49;;;;;;;8.40;3.15;;;;;;;21.04;37.57;99422.41;5115107;28;20492;-65
2022/04/14 07:05:15;;;;;;;8.98;2.60;;;;;;;21.03;37.43;99425.56;5118323;28;20126;-65
2022/04/14 07:07:40;;;;;;;8.15;2.67;;;;;;;21.02;37.57;99426.72;5133069;28;20076;-65
2022/04/14 07:10:06;;;;;;;7.13;2.60;;;;;;;20.99;37.48;99425.50;5133162;28;20039;-65
2022/04/14 07:12:31;;;;;;;10.98;2.92;;;;;;;20.96;37.71;99417.91;5132329;28;20043;-64
2022/04/14 07:14:57;;;;;;;7.78;1.98;;;;;;;20.94;37.56;99417.50;5119930;28;20093;-64
2022/04/14 07:17:22;;;;;;;4.93;1.73;;;;;;;20.94;37.88;99420.28;5122019;28;20059;-64
2022/04/14 07:19:48;;;;;;;3.85;1.45;;;;;;;20.96;37.98;99417.13;5130668;28;20131;-64
2022/04/14 07:22:18;;;;;;;3.67;1.40;;;;;;;21.00;37.74;99427.09;5127927;28;20043;-64
2022/04/14 07:24:46;;;;;;;4.28;1.50;;;;;;;21.04;38.08;99422.41;5130496;28;20103;-64
2022/04/14 07:27:11;;;;;;;3.67;1.25;;;;;;;21.06;38.14;99414.47;5130536;28;20042;-64
2022/04/14 07:29:36;;;;;;;7.10;2.00;;;;;;;21.10;38.05;99425.66;5121050;28;20044;-63
2022/04/14 07:32:02;;;;;;;5.15;1.33;;;;;;;21.15;37.74;99425.34;5122466;28;20057;-64
2022/04/14 07:34:27;;;;;;;3.17;1.23;;;;;;;21.21;37.96;99426.59;5118354;28;20031;-64
2022/04/14 07:36:53;;;;;;;5.75;1.65;;;;;;;21.23;37.75;99429.00;5123992;28;20035;-64
2022/04/14 07:39:18;;;;;;;3.28;1.15;;;;;;;21.24;37.54;99425.84;5131002;27;20096;-64
2022/04/14 07:41:44;;;;;;;3.35;1.33;;;;;;;21.26;37.76;99429.03;5123692;27;20070;-64
2022/04/14 07:44:09;;;;;;;3.40;1.20;;;;;;;21.29;37.63;99428.34;5129692;27;20557;-64
2022/04/14 07:46:38;;;;;;;3.13;1.17;;;;;;;21.31;37.65;99422.38;5125901;28;20039;-64
2022/04/14 07:49:04;;;;;;;3.13;1.20;;;;;;;21.35;37.43;99423.22;5117540;28;20036;-63
2022/04/14 07:51:29;;;;;;;4.82;1.20;;;;;;;21.35;37.45;99424.03;5125530;27;20027;-63
2022/04/14 07:53:55;;;;;;;4.03;1.17;;;;;;;21.33;38.16;99420.81;5112618;28;20039;-65
2022/04/14 07:56:22;;;;;;;2.63;1.00;;;;;;;21.37;37.82;99418.09;5128228;28;20150;-63
2022/04/14 07:58:48;;;;;;;3.20;1.00;;;;;;;21.37;38.43;99415.31;5117531;28;20047;-64
2022/04/14 08:01:14;;;;;;;2.42;0.95;;;;;;;21.39;38.15;99422.09;5131564;28;20522;-64
2022/04/14 08:03:39;;;;;;;3.15;1.20;;;;;;;21.43;38.44;99428.50;5132050;28;20103;-65
2022/04/14 08:06:05;;;;;;;1.63;0.80;;;;;;;21.44;38.27;99418.19;5124928;28;20031;-64
2022/04/14 08:08:31;;;;;;;3.25;1.20;;;;;;;21.46;38.46;99428.94;5125152;28;20442;-66
2022/04/14 08:11:01;;;;;;;3.13;1.20;;;;;;;21.48;38.50;99430.16;5131727;28;20043;-61
2022/04/14 08:13:29;;;;;;;2.08;0.90;;;;;;;21.51;38.54;99429.41;5130084;28;20035;-62
2022/04/14 08:15:55;;;;;;;2.80;1.10;;;;;;;21.53;38.70;99431.81;5128658;28;20047;-63
2022/04/14 08:18:20;;;;;;;2.22;1.10;;;;;;;21.57;38.88;99432.63;5130000;28;20035;-64
2022/04/14 08:20:46;;;;;;;1.88;0.80;;;;;;;21.58;38.91;99429.50;5131579;28;20069;-66
2022/04/14 08:23:13;;;;;;;2.10;0.95;;;;;;;21.67;38.36;99429.19;5130940;28;20047;-66
2022/04/14 08:25:40;;;;;;;3.03;1.02;;;;;;;21.68;38.19;99419.66;5128037;28;20582;-66
2022/04/14 08:28:07;;;;;;;1.60;0.90;;;;;;;21.73;38.05;99427.66;5130894;28;20035;-60
2022/04/14 08:30:34;;;;;;;3.83;0.88;;;;;;;21.76;38.42;99423.31;5131800;28;20039;-64
2022/04/14 08:33:04;;;;;;;1.92;0.85;;;;;;;21.77;38.25;99422.94;5130274;28;20579;-63
2022/04/14 08:35:31;;;;;;;3.83;1.30;;;;;;;21.84;38.26;99419.41;5131639;28;20134;-64
2022/04/14 08:37:57;;;;;;;4.25;1.00;;;;;;;21.87;38.22;99413.91;5130693;28;20410;-65
2022/04/14 08:40:25;;;;;;;1.80;0.90;;;;;;;21.90;38.08;99407.56;5130981;28;20422;-60
2022/04/14 08:42:59;;;;;;;2.13;0.98;;;;;;;21.93;37.74;99408.75;5130813;28;20039;-60
2022/04/14 08:45:29;;;;;;;2.28;0.98;;;;;;;21.95;37.98;99398.88;5129767;28;20043;-60
2022/04/14 08:47:57;;;;;;;3.45;1.00;;;;;;;21.96;37.55;99402.44;5129678;28;20084;-64
2022/04/14 08:50:24;;;;;;;4.90;1.00;;;;;;;21.98;37.70;99400.88;5123818;27;20415;-64
2022/04/14 08:52:51;;;;;;;2.92;0.98;;;;;;;22.01;37.73;99404.88;5130195;28;20045;-63
2022/04/14 08:55:16;;;;;;;4.60;1.63;;;;;;;22.00;37.69;99400.47;5130822;28;20050;-63
2022/04/14 08:57:44;;;;;;;7.18;2.05;;;;;;;22.03;37.37;99396.16;5131159;28;20043;-63
2022/04/14 09:00:12;;;;;;;6.43;2.20;;;;;;;22.06;37.25;99395.38;5120130;28;20044;-64
2022/04/14 09:02:38;;;;;;;7.60;2.05;;;;;;;22.06;37.44;99387.81;5117008;28;20135;-63
2022/04/14 09:05:04;;;;;;;8.43;2.35;;;;;;;22.11;37.52;99390.28;5130324;28;20122;-63
2022/04/14 09:07:29;;;;;;;9.00;2.97;;;;;;;22.14;37.33;99391.50;5129508;28;20052;-61
2022/04/14 09:09:55;;;;;;;8.07;3.00;;;;;;;22.11;37.13;99386.69;5122626;28;20461;-61
2022/04/14 09:12:20;;;;;;;11.13;4.45;;;;;;;22.05;37.18;99379.84;5114713;28;20037;-60
2022/04/14 09:14:46;;;;;;;11.55;3.63;;;;;;;22.05;37.49;99372.28;5127011;28;20040;-60
2022/04/14 09:17:12;;;;;;;10.38;3.53;;;;;;;22.05;37.35;99377.84;5124971;28;20443;-60
2022/04/14 09:19:38;;;;;;;8.73;2.70;;;;;;;22.20;37.39;99382.41;5123077;28;20067;-60
2022/04/14 09:22:15;;;;;;;5.07;2.20;;;;;;;22.22;37.45;99382.03;5121266;28;20122;-60
2022/04/14 09:25:07;;;;;;;5.85;2.17;;;;;;;22.24;37.74;99374.88;5124745;28;20039;-60
2022/04/14 09:27:37;;;;;;;4.88;2.25;;;;;;;22.30;37.77;99377.31;5118612;28;20038;-60
2022/04/14 09:30:08;;;;;;;4.72;1.92;;;;;;;22.31;37.88;99376.94;5123246;28;20047;-61
2022/04/14 09:32:44;;;;;;;5.22;1.80;;;;;;;22.31;37.83;99367.78;5120209;28;20035;-64
2022/04/14 09:35:18;;;;;;;6.80;1.80;;;;;;;22.35;37.66;99365.78;5123521;28;20079;-63
2022/04/14 09:37:43;;;;;;;5.28;2.05;;;;;;;22.37;38.00;99367.03;5122877;28;20528;-63
2022/04/14 09:40:11;;;;;;;8.23;2.10;;;;;;;22.42;37.75;99372.22;5116438;28;21028;-64
2022/04/14 09:42:41;;;;;;;4.63;1.70;;;;;;;22.51;37.87;99367.13;5121299;28;20429;-64
2022/04/14 09:45:20;;;;;;;5.07;1.90;;;;;;;22.58;37.58;99366.38;5121888;28;20039;-65
2022/04/14 09:47:46;;;;;;;3.88;1.50;;;;;;;22.65;37.45;99366.44;5121977;28;20028;-65
2022/04/14 09:50:40;;;;;;;4.07;1.55;;;;;;;22.66;37.60;99364.44;5121909;28;20047;-63
2022/04/14 09:53:20;;;;;;;5.03;1.58;;;;;;;22.70;37.64;99366.03;5116487;28;20043;-64
2022/04/14 09:55:52;;;;;;;3.67;1.73;;;;;;;22.72;37.68;99360.91;5115726;28;20043;-63
2022/04/14 09:58:17;;;;;;;7.30;1.63;;;;;;;22.76;37.51;99358.91;5122196;28;20040;-64
2022/04/14 10:00:49;;;;;;;3.92;1.33;;;;;;;22.77;37.49;99357.72;5113493;28;20055;-65
2022/04/14 10:03:29;;;;;;;4.22;1.65;;;;;;;22.80;37.10;99347.78;5110357;28;20491;-64
2022/04/14 10:05:59;;;;;;;5.43;1.67;;;;;;;22.83;37.20;99354.56;5083165;28;20047;-64
2022/04/14 10:08:25;;;;;;;5.65;2.03;;;;;;;22.85;37.27;99347.41;5113862;28;20170;-65
2022/04/14 10:11:04;;;;;;;3.78;1.52;;;;;;;22.85;37.15;99346.59;5116226;28;20130;-66
2022/04/14 10:13:40;;;;;;;5.18;1.80;;;;;;;22.85;37.40;99347.41;5115029;28;20051;-65
2022/04/14 10:16:09;;;;;;;4.15;1.55;;;;;;;22.92;37.12;99347.47;5106727;28;20031;-66
2022/04/14 10:18:35;;;;;;;3.33;1.40;;;;;;;22.98;37.08;99345.13;5114727;28;20039;-65
2022/04/14 10:21:01;;;;;;;2.83;1.23;;;;;;;23.00;36.96;99335.19;5111048;27;20043;-66
2022/04/14 10:23:27;;;;;;;3.28;1.30;;;;;;;23.04;36.95;99335.97;5115085;28;20423;-65
2022/04/14 10:25:53;;;;;;;3.85;1.35;;;;;;;23.06;36.73;99327.22;5118657;27;20069;-65
2022/04/14 10:28:20;;;;;;;3.60;1.45;;;;;;;23.08;36.80;99330.44;5121421;28;20187;-65
2022/04/14 10:30:56;;;;;;;3.88;1.45;;;;;;;23.09;36.93;99320.88;5120839;28;20031;-65
2022/04/14 10:33:22;;;;;;;2.53;1.27;;;;;;;23.12;36.80;99331.22;5121971;28;20515;-66
2022/04/14 10:35:50;;;;;;;3.65;1.23;;;;;;;23.13;36.65;99323.66;5107917;27;20130;-65
2022/04/14 10:38:44;;;;;;;3.90;1.50;;;;;;;23.14;36.81;99314.09;5114086;27;20027;-65
2022/04/14 10:41:17;;;;;;;4.38;1.50;;;;;;;23.15;36.80;99318.50;5111531;28;20572;-66
2022/04/14 10:43:46;;;;;;;4.05;1.70;;;;;;;23.15;36.94;99315.72;5110294;28;20054;-65
2022/04/14 10:46:17;;;;;;;3.17;1.52;;;;;;;23.18;36.98;99309.34;5117293;28;20038;-65
2022/04/14 10:48:45;;;;;;;3.42;1.40;;;;;;;23.18;36.90;99310.13;5120438;28;20081;-66
2022/04/14 10:51:27;;;;;;;5.18;1.55;;;;;;;23.25;37.10;99314.94;5114803;28;20122;-65
2022/04/14 10:54:01;;;;;;;8.70;4.13;;;;;;;23.04;37.05;99316.47;5118022;28;20041;-66
2022/04/14 10:56:42;;;;;;;9.07;3.38;;;;;;;22.91;37.15;99312.41;5118115;28;20043;-66
2022/04/14 10:59:18;;;;;;;9.63;2.97;;;;;;;23.03;37.26;99314.06;5117126;28;20132;-66
2022/04/14 11:01:50;;;;;;;5.88;2.25;;;;;;;23.18;37.49;99306.53;5114776;27;20077;-65
2022/04/14 11:04:27;;;;;;;5.63;2.05;;;;;;;23.23;37.36;99295.81;5118965;28;20096;-66
2022/04/14 11:06:58;;;;;;;14.55;2.30;;;;;;;23.32;37.16;99303.78;5119729;28;20418;-66
2022/04/14 11:09:42;;;;;;;13.65;2.40;;;;;;;23.41;36.97;99295.84;5110583;28;20046;-66
2022/04/14 11:12:10;;;;;;;10.18;2.58;;;;;;;23.48;36.86;99301.44;5119384;28;20396;-66
2022/04/14 11:15:05;;;;;;;11.23;2.45;;;;;;;23.45;37.17;99293.06;5109086;28;20036;-66
2022/04/14 11:17:30;;;;;;;7.15;2.00;;;;;;;23.37;37.36;99285.88;5112352;28;20097;-66
2022/04/14 11:20:15;;;;;;;5.95;1.98;;;;;;;23.35;37.40;99283.47;5111043;28;20035;-66
2022/04/14 11:23:01;;;;;;;6.28;1.88;;;;;;;23.37;37.42;99291.47;5112471;28;20146;-66
2022/04/14 11:25:45;;;;;;;8.95;2.08;;;;;;;23.37;37.35;99277.50;5115564;28;20041;-66
2022/04/14 11:28:30;;;;;;;5.53;1.73;;;;;;;23.38;37.29;99282.69;5119989;28;20434;-65
2022/04/14 11:30:57;;;;;;;4.65;1.63;;;;;;;23.37;37.24;99289.47;5117063;28;20050;-66
2022/04/14 11:33:22;;;;;;;5.00;1.45;;;;;;;23.41;37.31;99279.09;5119695;28;20117;-65
2022/04/14 11:35:48;;;;;;;7.40;1.80;;;;;;;23.41;37.25;99286.66;5112610;28;20043;-65